Terminal Aerodrome Forecast
Issued by NWS

Home | Current Version | Previous Version | Text Only | Print | Product List | Glossary On
Versions: 1 2 3 4 5 6 7 8 9 10 11 12 13 14 15 16 17
469
FTUS41 KBGM 280839 AAA
TAFELM
TAF AMD
KELM 280839Z 2809/2906 15006KT P6SM BKN015
     FM281400 20004KT P6SM BKN035
     FM282300 27004KT P6SM SCT250=

USA.gov is the U.S. government's official web portal to all federal, state and local government web resources and services.